Time;durP1;ratioP1;P1;durP2;ratioP2;P2;SDS_P1;SDS_P2;PMS_P1;PMS_P2;Temp;Humidity;BMP_temperature;BMP_pressure;BME280_temperature;BME280_humidity;BME280_pressure;Samples;Min_cycle;Max_cycle;Signal;HPM_P1;HPM_P2
2021/05/20 00:00:41;;;;;;;4.95;4.28;;;;;;;13.70;32.82;101267.81;4992121;28;96992;-73
2021/05/20 00:03:09;;;;;;;4.05;3.75;;;;;;;13.65;32.88;101264.19;4996085;28;97543;-73
2021/05/20 00:05:38;;;;;;;4.65;4.25;;;;;;;13.62;33.09;101269.50;4996124;28;97784;-73
2021/05/20 00:08:06;;;;;;;4.78;4.20;;;;;;;13.56;32.99;101275.63;4996290;28;97352;-72
2021/05/20 00:10:34;;;;;;;4.85;4.45;;;;;;;13.51;33.24;101279.09;4993678;28;97515;-72
2021/05/20 00:13:01;;;;;;;4.97;4.47;;;;;;;13.47;33.26;101275.47;4995325;28;96783;-72
2021/05/20 00:15:30;;;;;;;4.85;4.45;;;;;;;13.44;33.27;101277.19;4995352;28;98195;-72
2021/05/20 00:17:57;;;;;;;4.28;3.97;;;;;;;13.42;33.28;101284.28;4996054;28;99155;-73
2021/05/20 00:20:25;;;;;;;4.22;3.92;;;;;;;13.36;33.30;101278.84;4995598;28;97592;-72
2021/05/20 00:22:54;;;;;;;4.60;4.25;;;;;;;13.28;33.23;101281.38;4996093;28;96823;-73
2021/05/20 00:25:22;;;;;;;4.22;3.92;;;;;;;13.23;33.07;101277.72;4995864;28;99330;-72
2021/05/20 00:27:49;;;;;;;3.67;3.38;;;;;;;13.18;33.59;101284.75;4993596;28;98021;-72
2021/05/20 00:30:18;;;;;;;5.18;4.50;;;;;;;13.06;33.54;101284.50;4993584;28;96964;-73
2021/05/20 00:32:45;;;;;;;4.45;4.13;;;;;;;12.97;33.63;101286.97;4996655;28;97571;-73
2021/05/20 00:35:13;;;;;;;4.97;4.57;;;;;;;12.91;33.75;101286.88;4995003;28;97850;-72
2021/05/20 00:37:41;;;;;;;5.25;4.85;;;;;;;12.85;33.68;101284.97;4994507;28;97785;-72
2021/05/20 00:40:11;;;;;;;5.68;5.25;;;;;;;12.80;33.84;101286.63;4993955;28;97190;-72
2021/05/20 00:42:39;;;;;;;7.13;6.43;;;;;;;12.79;33.94;101291.94;4995608;28;97224;-72
2021/05/20 00:45:07;;;;;;;6.82;6.18;;;;;;;12.72;33.95;101293.63;4993079;28;97917;-73
2021/05/20 00:47:35;;;;;;;6.50;5.78;;;;;;;12.68;34.08;101297.09;4995295;28;97885;-73
2021/05/20 00:50:05;;;;;;;6.85;6.10;;;;;;;12.65;34.03;101291.69;4994721;28;97763;-72
2021/05/20 00:52:33;;;;;;;6.93;6.00;;;;;;;12.66;34.19;101297.91;4997482;28;96057;-72
2021/05/20 00:55:03;;;;;;;7.10;6.40;;;;;;;12.66;34.19;101304.16;4993693;28;98442;-72
2021/05/20 00:57:32;;;;;;;6.93;6.28;;;;;;;12.63;34.17;101293.44;4975708;28;101378;-73
2021/05/20 01:00:05;;;;;;;7.60;6.70;;;;;;;12.64;34.25;101299.63;4992282;28;96737;-72
2021/05/20 01:02:32;;;;;;;9.10;6.65;;;;;;;12.63;34.29;101297.84;4989773;28;97101;-72
2021/05/20 01:05:02;;;;;;;7.90;7.10;;;;;;;12.67;34.36;101302.41;4987403;28;100410;-73
2021/05/20 01:07:29;;;;;;;8.88;7.30;;;;;;;12.70;34.14;101302.44;4988809;28;97876;-73
2021/05/20 01:09:57;;;;;;;8.05;7.25;;;;;;;12.73;34.41;101305.19;4990164;28;96862;-73
2021/05/20 01:12:25;;;;;;;8.63;7.32;;;;;;;12.74;34.32;101304.31;4990817;28;97098;-74
2021/05/20 01:14:54;;;;;;;9.82;8.57;;;;;;;12.74;34.43;101304.31;4988782;28;98005;-72
2021/05/20 01:17:21;;;;;;;10.77;9.20;;;;;;;12.77;34.27;101301.69;4990636;28;96947;-73
2021/05/20 01:19:49;;;;;;;10.65;8.70;;;;;;;12.76;34.38;101307.94;4988349;28;97654;-73
2021/05/20 01:22:20;;;;;;;10.98;9.80;;;;;;;12.74;34.24;101302.56;4989026;28;97269;-74
2021/05/20 01:24:48;;;;;;;11.90;9.75;;;;;;;12.73;34.38;101302.53;4991611;28;99291;-73
2021/05/20 01:27:16;;;;;;;11.18;9.18;;;;;;;12.74;34.55;101312.34;4991224;28;99486;-73
2021/05/20 01:29:45;;;;;;;10.65;9.55;;;;;;;12.74;34.65;101310.56;4995368;28;97265;-72
2021/05/20 01:32:12;;;;;;;12.05;9.32;;;;;;;12.74;34.47;101307.00;4993154;28;97317;-73
2021/05/20 01:34:40;;;;;;;13.90;10.27;;;;;;;12.74;34.86;101312.34;4991842;28;98331;-72
2021/05/20 01:37:09;;;;;;;13.10;10.68;;;;;;;12.74;34.70;101312.34;5009626;28;97851;-72
2021/05/20 01:39:38;;;;;;;16.45;14.13;;;;;;;12.74;35.84;101323.91;4993363;28;97944;-73
2021/05/20 01:42:06;;;;;;;15.93;14.23;;;;;;;12.77;36.17;101318.63;4993818;28;97868;-73
2021/05/20 01:44:34;;;;;;;15.73;11.73;;;;;;;12.86;35.92;101325.91;4994169;28;98874;-72
2021/05/20 01:47:02;;;;;;;14.18;11.02;;;;;;;12.85;35.63;101322.38;4996793;28;97906;-73
2021/05/20 01:49:30;;;;;;;12.95;11.38;;;;;;;12.84;35.39;101325.00;4997007;28;97131;-72
2021/05/20 01:51:57;;;;;;;13.98;11.32;;;;;;;12.74;35.44;101323.00;4995311;28;96110;-72
2021/05/20 01:54:25;;;;;;;15.93;12.18;;;;;;;12.67;35.37;101322.00;5000011;28;97838;-71
2021/05/20 01:56:54;;;;;;;14.68;12.10;;;;;;;12.58;35.38;101323.56;5021612;28;97770;-71
2021/05/20 01:59:22;;;;;;;13.80;12.30;;;;;;;12.52;35.41;101324.34;5005555;28;96802;-72
2021/05/20 02:01:49;;;;;;;19.33;11.90;;;;;;;12.43;35.44;101320.56;5003054;28;96947;-71
2021/05/20 02:04:17;;;;;;;16.50;12.15;;;;;;;12.40;35.61;101320.50;4989923;28;97695;-72
2021/05/20 02:06:45;;;;;;;16.85;11.70;;;;;;;12.39;35.54;101329.34;4989540;28;97654;-72
2021/05/20 02:09:13;;;;;;;15.55;12.27;;;;;;;12.36;35.53;101327.53;4986720;28;97396;-72
2021/05/20 02:11:40;;;;;;;16.90;12.57;;;;;;;12.34;35.45;101320.34;4987855;28;97773;-73
2021/05/20 02:14:09;;;;;;;14.10;11.40;;;;;;;12.32;35.47;101322.09;4988962;28;99064;-73
2021/05/20 02:16:37;;;;;;;16.65;12.18;;;;;;;12.30;35.58;101323.81;4988195;28;97807;-72
2021/05/20 02:19:04;;;;;;;19.63;12.75;;;;;;;12.30;35.44;101330.06;4970919;28;96735;-73
2021/05/20 02:21:32;;;;;;;16.77;12.82;;;;;;;12.32;35.66;101327.41;4988855;28;97103;-73
2021/05/20 02:24:00;;;;;;;16.63;12.82;;;;;;;12.34;35.43;101328.34;4986083;28;98366;-73
2021/05/20 02:26:28;;;;;;;15.30;12.13;;;;;;;12.31;35.71;101325.63;4988173;28;98807;-73
2021/05/20 02:28:55;;;;;;;14.73;11.80;;;;;;;12.25;35.64;101326.38;4987177;28;96835;-73
2021/05/20 02:31:24;;;;;;;15.55;12.65;;;;;;;12.24;35.59;101332.56;4988207;28;97614;-73
2021/05/20 02:33:52;;;;;;;15.65;11.90;;;;;;;12.22;35.62;101338.75;4988343;28;99227;-73
2021/05/20 02:36:20;;;;;;;15.13;12.05;;;;;;;12.22;35.78;101330.75;4986336;28;97935;-73
2021/05/20 02:38:47;;;;;;;13.77;11.70;;;;;;;12.19;35.70;101334.25;4987721;28;97693;-73
2021/05/20 02:41:16;;;;;;;16.80;12.05;;;;;;;12.18;35.60;101330.66;4988153;28;97255;-73
2021/05/20 02:43:43;;;;;;;13.80;11.52;;;;;;;12.16;35.72;101332.34;4988399;28;96884;-73
2021/05/20 02:46:11;;;;;;;15.88;11.80;;;;;;;12.21;35.64;101327.19;4988383;28;97967;-73
2021/05/20 02:48:40;;;;;;;17.05;12.90;;;;;;;12.20;35.89;101335.16;4989013;28;97346;-74
2021/05/20 02:51:08;;;;;;;14.93;11.68;;;;;;;12.14;35.90;101328.75;5004072;28;97790;-74
2021/05/20 02:53:35;;;;;;;15.52;12.32;;;;;;;12.16;35.94;101335.03;4989026;28;97796;-73
2021/05/20 02:56:03;;;;;;;13.25;11.30;;;;;;;12.14;35.94;101342.09;4989731;28;98146;-74
2021/05/20 02:58:31;;;;;;;14.00;10.63;;;;;;;12.12;36.06;101341.19;4987154;28;98369;-74
2021/05/20 03:01:01;;;;;;;17.73;12.65;;;;;;;12.15;36.04;101345.66;4987769;28;97098;-73
2021/05/20 03:03:29;;;;;;;16.10;13.30;;;;;;;12.17;35.99;101344.88;4988812;28;99507;-73
2021/05/20 03:05:58;;;;;;;16.73;12.90;;;;;;;12.20;35.85;101348.50;4988395;28;97773;-73
2021/05/20 03:08:28;;;;;;;14.38;12.10;;;;;;;12.21;35.91;101342.28;4988139;28;96829;-74
2021/05/20 03:10:56;;;;;;;16.42;12.50;;;;;;;12.22;35.89;101352.09;4989279;28;97619;-73
2021/05/20 03:13:24;;;;;;;18.05;13.82;;;;;;;12.24;35.92;101345.03;4988615;28;97875;-73
2021/05/20 03:15:52;;;;;;;18.45;13.88;;;;;;;12.23;35.77;101349.47;4987485;28;97659;-73
2021/05/20 03:18:20;;;;;;;18.52;13.80;;;;;;;12.18;35.95;101344.00;4988750;28;97793;-73
2021/05/20 03:20:47;;;;;;;16.40;12.70;;;;;;;12.17;36.17;101346.66;4988831;28;96998;-73
2021/05/20 03:23:16;;;;;;;18.50;14.65;;;;;;;12.16;36.00;101348.38;4987690;28;97894;-73
2021/05/20 03:25:44;;;;;;;16.67;13.30;;;;;;;12.17;36.18;101355.56;4988114;28;97758;-73
2021/05/20 03:28:12;;;;;;;17.27;13.77;;;;;;;12.21;35.93;101344.94;4988526;28;97580;-73
2021/05/20 03:30:40;;;;;;;20.02;13.68;;;;;;;12.25;36.17;101352.16;4988429;28;97847;-73
2021/05/20 03:33:08;;;;;;;19.13;14.68;;;;;;;12.24;36.21;101355.72;5002455;28;98250;-73
2021/05/20 03:35:36;;;;;;;17.95;14.07;;;;;;;12.23;36.10;101357.47;4989434;28;99294;-73
2021/05/20 03:38:04;;;;;;;19.05;13.10;;;;;;;12.21;36.22;101352.94;4991043;28;97420;-74
2021/05/20 03:40:32;;;;;;;17.90;13.52;;;;;;;12.24;36.25;101361.06;4990001;28;96748;-73
2021/05/20 03:43:00;;;;;;;16.85;13.70;;;;;;;12.26;36.20;101354.88;4991963;28;97912;-74
2021/05/20 03:45:28;;;;;;;20.90;15.57;;;;;;;12.26;36.06;101357.53;4991663;28;98276;-72
2021/05/20 03:47:55;;;;;;;19.23;14.30;;;;;;;12.30;36.20;101355.84;4993652;28;97480;-73
2021/05/20 03:50:23;;;;;;;17.83;14.30;;;;;;;12.26;36.15;101359.28;4990696;28;96991;-73
2021/05/20 03:52:51;;;;;;;18.55;14.00;;;;;;;12.27;36.18;101350.44;4991108;28;101765;-73
2021/05/20 03:55:18;;;;;;;20.48;14.50;;;;;;;12.31;36.28;101358.53;4989907;28;98153;-73
2021/05/20 03:57:48;;;;;;;20.73;14.73;;;;;;;12.30;36.35;101362.06;4992789;28;96934;-71
2021/05/20 04:00:17;;;;;;;24.55;15.40;;;;;;;12.30;36.23;101362.06;4990932;28;97043;-72
2021/05/20 04:02:45;;;;;;;20.77;14.43;;;;;;;12.32;36.27;101359.44;4987791;28;97933;-73
2021/05/20 04:05:13;;;;;;;23.70;17.02;;;;;;;12.32;36.13;101363.03;4986634;28;98731;-73
2021/05/20 04:07:41;;;;;;;24.30;16.38;;;;;;;12.34;36.13;101357.72;4987939;28;97675;-72
2021/05/20 04:10:10;;;;;;;23.67;15.15;;;;;;;12.40;36.25;101365.88;4987302;28;97777;-72
2021/05/20 04:12:38;;;;;;;34.13;21.65;;;;;;;12.42;36.25;101367.69;4987996;28;96974;-73
2021/05/20 04:15:08;;;;;;;25.42;18.27;;;;;;;12.49;36.10;101368.75;4989590;28;99066;-72
2021/05/20 04:17:37;;;;;;;18.90;13.55;;;;;;;12.49;36.03;101376.75;4987242;28;96888;-73
2021/05/20 04:20:06;;;;;;;19.50;15.07;;;;;;;12.50;35.93;101373.22;4987936;28;96946;-72
2021/05/20 04:22:34;;;;;;;20.95;15.45;;;;;;;12.50;35.96;101381.22;4989313;28;98195;-72
2021/05/20 04:25:03;;;;;;;19.55;15.40;;;;;;;12.42;36.23;101374.81;4988026;28;100850;-73
2021/05/20 04:27:31;;;;;;;18.98;14.75;;;;;;;12.35;36.20;101387.09;4988438;28;97285;-73
2021/05/20 04:29:58;;;;;;;19.00;14.98;;;;;;;12.36;36.26;101380.91;4987244;28;97251;-73
2021/05/20 04:32:27;;;;;;;18.88;15.00;;;;;;;12.35;36.38;101388.84;4987809;28;97048;-73
2021/05/20 04:34:55;;;;;;;20.42;14.82;;;;;;;12.38;36.11;101388.94;4988319;28;98904;-73
2021/05/20 04:37:23;;;;;;;22.60;16.25;;;;;;;12.34;36.15;101387.06;4988223;28;98794;-72
2021/05/20 04:39:52;;;;;;;21.83;16.25;;;;;;;12.35;36.39;101391.53;4988556;28;96794;-73
2021/05/20 04:42:19;;;;;;;19.98;15.13;;;;;;;12.39;36.31;101393.41;4988084;28;97888;-73
2021/05/20 04:44:47;;;;;;;21.63;15.50;;;;;;;12.41;36.05;101392.59;4984840;28;100757;-73
2021/05/20 04:47:15;;;;;;;22.38;15.43;;;;;;;12.37;36.38;101397.81;4988257;28;96953;-73
2021/05/20 04:49:43;;;;;;;22.85;16.17;;;;;;;12.39;36.30;101399.66;4986914;28;97304;-72
2021/05/20 04:52:11;;;;;;;23.55;16.50;;;;;;;12.37;36.25;101400.47;4982523;28;98883;-72
2021/05/20 04:54:39;;;;;;;19.55;13.85;;;;;;;12.42;36.20;101402.38;4985108;28;100003;-72
2021/05/20 04:57:07;;;;;;;23.35;16.05;;;;;;;12.42;36.08;101404.19;4986886;28;97834;-72
2021/05/20 04:59:34;;;;;;;23.08;15.90;;;;;;;12.41;36.22;101405.94;4985891;28;97709;-74
2021/05/20 05:02:02;;;;;;;21.50;15.35;;;;;;;12.43;36.18;101411.31;4992061;28;96808;-74
2021/05/20 05:04:30;;;;;;;23.58;15.13;;;;;;;12.46;35.98;101414.94;4990093;28;97833;-72
2021/05/20 05:06:59;;;;;;;25.85;15.77;;;;;;;12.45;36.13;101418.50;4991244;28;96917;-74
2021/05/20 05:09:26;;;;;;;22.67;15.25;;;;;;;12.52;35.99;101419.53;4991042;28;98376;-74
2021/05/20 05:11:54;;;;;;;24.20;15.95;;;;;;;12.58;35.93;101422.34;4990687;28;97900;-75
2021/05/20 05:14:22;;;;;;;21.35;14.50;;;;;;;12.66;35.89;101427.00;4986042;28;98963;-72
2021/05/20 05:16:50;;;;;;;22.00;15.68;;;;;;;12.66;35.81;101423.41;4985544;28;97168;-73
2021/05/20 05:19:18;;;;;;;21.70;15.27;;;;;;;12.73;35.80;101438.72;4989099;28;99225;-71
2021/05/20 05:21:45;;;;;;;34.13;22.67;;;;;;;12.76;35.56;101436.13;4986691;28;98908;-71
2021/05/20 05:24:14;;;;;;;23.02;15.63;;;;;;;12.78;35.60;101443.28;4985930;28;99091;-71
2021/05/20 05:26:42;;;;;;;23.08;15.15;;;;;;;12.76;35.78;101444.13;4987336;28;96872;-72
2021/05/20 05:29:09;;;;;;;24.08;15.02;;;;;;;12.69;35.69;101436.84;4985042;28;97120;-72
2021/05/20 05:31:37;;;;;;;20.58;14.65;;;;;;;12.67;35.69;101447.50;4986225;28;97764;-73
2021/05/20 05:34:04;;;;;;;24.00;16.10;;;;;;;12.58;35.92;101439.28;4986362;28;99199;-72
2021/05/20 05:36:33;;;;;;;22.92;15.38;;;;;;;12.50;36.17;101448.88;4987025;28;98593;-72
2021/05/20 05:39:00;;;;;;;28.98;18.17;;;;;;;12.52;36.01;101454.22;4987717;28;97714;-73
2021/05/20 05:41:29;;;;;;;26.85;17.38;;;;;;;12.54;35.84;101463.19;4984191;28;98708;-72
2021/05/20 05:43:57;;;;;;;24.40;17.30;;;;;;;12.51;35.95;101457.78;4981561;28;98595;-72
2021/05/20 05:46:25;;;;;;;25.92;17.13;;;;;;;12.45;36.07;101458.53;4985377;28;97737;-73
2021/05/20 05:49:00;;;;;;;24.65;16.00;;;;;;;12.43;35.98;101457.59;4986674;28;98246;-73
2021/05/20 05:51:31;;;;;;;27.23;17.30;;;;;;;12.45;36.18;101460.28;4985588;28;98457;-72
2021/05/20 05:53:59;;;;;;;24.20;16.08;;;;;;;12.51;35.75;101460.44;4987440;28;98437;-73
2021/05/20 05:56:26;;;;;;;24.48;15.77;;;;;;;12.60;35.84;101463.34;4987154;28;98154;-73
2021/05/20 05:59:15;;;;;;;23.98;16.23;;;;;;;12.60;35.76;101458.00;4979453;28;97385;-73
2021/05/20 06:01:43;;;;;;;26.52;18.52;;;;;;;12.60;35.91;101463.34;4979465;28;99996;-73
2021/05/20 06:04:11;;;;;;;26.98;17.98;;;;;;;12.68;35.72;101465.31;4980130;28;98897;-73
2021/05/20 06:06:42;;;;;;;23.98;16.35;;;;;;;12.71;35.69;101467.16;4976163;28;98159;-73
2021/05/20 06:09:10;;;;;;;21.98;15.43;;;;;;;12.74;35.51;101469.91;4984873;28;98000;-73
2021/05/20 06:11:38;;;;;;;21.08;16.15;;;;;;;12.77;35.61;101467.28;4982979;28;101416;-74
2021/05/20 06:14:08;;;;;;;24.88;17.33;;;;;;;12.82;35.55;101471.00;4986081;28;98063;-73
2021/05/20 06:16:40;;;;;;;27.58;18.55;;;;;;;12.86;35.47;101472.84;5000624;28;97927;-72
2021/05/20 06:19:09;;;;;;;23.85;16.17;;;;;;;12.76;35.51;101476.19;4986480;28;97820;-72
2021/05/20 06:21:37;;;;;;;30.65;19.38;;;;;;;12.62;35.64;101481.19;4986924;28;98007;-72
2021/05/20 06:24:06;;;;;;;27.63;16.75;;;;;;;12.60;35.58;101490.03;4988664;28;100176;-72
2021/05/20 06:26:34;;;;;;;21.08;14.15;;;;;;;12.51;35.64;101488.03;4983970;28;97960;-72
2021/05/20 06:29:02;;;;;;;23.65;14.90;;;;;;;12.49;35.68;101497.75;4983995;28;98062;-73
2021/05/20 06:31:30;;;;;;;22.80;14.90;;;;;;;12.55;35.43;101494.34;4988087;28;98904;-73
2021/05/20 06:33:59;;;;;;;24.45;14.10;;;;;;;12.57;35.52;101496.19;5000241;28;97975;-73
2021/05/20 06:36:27;;;;;;;20.00;13.88;;;;;;;12.65;35.30;101485.72;4989270;28;96795;-73
2021/05/20 06:38:55;;;;;;;22.80;13.80;;;;;;;12.75;35.39;101490.38;4990958;28;97845;-72
2021/05/20 06:41:22;;;;;;;18.80;14.15;;;;;;;12.83;35.40;101492.38;4989996;28;98194;-72
2021/05/20 06:43:50;;;;;;;18.52;13.48;;;;;;;12.92;35.09;101486.34;4989983;28;97926;-73
2021/05/20 06:46:18;;;;;;;20.25;14.57;;;;;;;13.04;34.81;101497.31;4987927;28;98851;-73
2021/05/20 06:48:46;;;;;;;22.52;14.48;;;;;;;13.05;34.88;101496.47;4989149;28;97139;-73
2021/05/20 06:51:15;;;;;;;18.67;13.10;;;;;;;12.95;34.97;101491.75;4987998;28;98213;-74
2021/05/20 06:53:48;;;;;;;16.27;11.65;;;;;;;12.97;35.02;101493.59;4989173;28;99023;-74
2021/05/20 06:56:19;;;;;;;15.05;11.20;;;;;;;13.04;34.92;101497.31;4988932;28;98086;-74
2021/05/20 07:03:16;;;;;;;15.52;10.63;;;;;;;13.27;34.41;101488.06;4990038;28;97186;-75
2021/05/20 07:05:44;;;;;;;13.63;10.80;;;;;;;13.28;34.40;101503.22;4987556;28;98842;-76
2021/05/20 07:08:16;;;;;;;20.52;14.23;;;;;;;13.30;34.37;101497.91;4986917;28;97001;-74
2021/05/20 07:10:44;;;;;;;16.42;11.70;;;;;;;13.29;34.45;101502.38;4969641;28;97245;-75
2021/05/20 07:13:12;;;;;;;16.65;12.00;;;;;;;13.28;34.34;101499.63;4994818;28;97820;-79
2021/05/20 07:15:40;;;;;;;16.20;11.93;;;;;;;13.23;34.44;101507.56;4990944;28;97859;-81
2021/05/20 07:18:08;;;;;;;16.25;11.90;;;;;;;13.22;34.53;101508.44;4990129;28;97303;-79
2021/05/20 07:20:36;;;;;;;14.13;11.30;;;;;;;13.23;34.52;101506.66;4989111;28;97206;-79
2021/05/20 07:23:10;;;;;;;12.90;10.38;;;;;;;13.32;34.58;101502.41;4989197;28;97755;-76
2021/05/20 07:25:39;;;;;;;12.52;9.70;;;;;;;13.36;34.32;101504.28;5000313;28;99487;-77
2021/05/20 07:28:07;;;;;;;14.23;10.15;;;;;;;13.40;34.22;101502.59;4986305;28;97316;-78
2021/05/20 07:30:35;;;;;;;11.73;9.18;;;;;;;13.49;34.07;101501.00;4988905;28;97038;-77
2021/05/20 07:33:03;;;;;;;14.98;9.38;;;;;;;13.49;34.12;101498.34;4987412;28;97703;-77
2021/05/20 07:35:31;;;;;;;11.50;8.80;;;;;;;13.49;34.05;101501.00;4988210;28;99129;-77
2021/05/20 07:37:59;;;;;;;13.88;11.90;;;;;;;13.43;33.88;101495.53;4984741;28;97610;-77
2021/05/20 07:40:26;;;;;;;16.15;11.88;;;;;;;13.45;33.78;101501.81;4983164;28;97189;-76
2021/05/20 07:42:56;;;;;;;15.38;12.82;;;;;;;13.53;33.49;101499.31;4985832;28;98298;-76
2021/05/20 07:45:24;;;;;;;17.10;14.07;;;;;;;13.60;33.56;101496.78;4985888;28;97962;-77
2021/05/20 07:47:52;;;;;;;71.47;41.90;;;;;;;13.71;33.56;101497.91;4988033;28;97228;-77
2021/05/20 07:50:20;;;;;;;20.77;16.52;;;;;;;13.85;33.32;101496.41;5001270;28;97418;-76
2021/05/20 07:52:48;;;;;;;18.00;14.20;;;;;;;13.93;33.23;101496.56;4980409;28;98150;-76
2021/05/20 07:55:16;;;;;;;16.95;13.50;;;;;;;14.00;33.00;101495.81;4982410;28;97607;-77
2021/05/20 07:57:45;;;;;;;17.77;13.90;;;;;;;14.05;32.98;101499.47;4982601;28;96984;-72
2021/05/20 08:00:14;;;;;;;27.00;14.43;;;;;;;14.06;32.88;101491.44;4985625;28;97175;-75
2021/05/20 08:02:49;;;;;;;24.80;14.30;;;;;;;14.07;32.80;101485.25;4986722;28;97924;-74
2021/05/20 08:05:28;;;;;;;16.38;13.30;;;;;;;14.15;32.50;101493.41;4989473;28;99619;-76
2021/05/20 08:08:01;;;;;;;14.77;12.05;;;;;;;14.25;32.41;101494.44;4988080;28;96905;-75
2021/05/20 08:10:45;;;;;;;13.85;11.95;;;;;;;14.32;32.36;101494.59;4988983;28;97281;-75
2021/05/20 08:13:13;;;;;;;12.73;9.77;;;;;;;14.38;32.20;101493.78;4987023;28;98159;-75
2021/05/20 08:15:41;;;;;;;11.23;9.48;;;;;;;14.38;31.53;101489.34;4985134;28;97222;-75
2021/05/20 08:18:09;;;;;;;11.00;9.47;;;;;;;14.34;31.44;101479.44;4984394;28;97352;-76
2021/05/20 08:20:37;;;;;;;10.25;9.18;;;;;;;14.33;30.99;101488.38;4983464;28;97520;-75
2021/05/20 08:23:06;;;;;;;9.40;8.20;;;;;;;14.28;30.80;101484.69;4982052;28;97156;-76
2021/05/20 08:25:34;;;;;;;12.50;8.73;;;;;;;14.21;30.86;101485.47;4984627;28;101592;-76
2021/05/20 08:28:02;;;;;;;11.10;9.77;;;;;;;14.19;30.96;101494.38;4985410;28;97055;-76
2021/05/20 08:30:30;;;;;;;10.50;9.30;;;;;;;14.16;31.13;101497.88;4980140;28;97343;-73
2021/05/20 08:32:58;;;;;;;10.63;9.35;;;;;;;14.17;31.33;101494.31;4982248;28;98114;-73
2021/05/20 08:35:26;;;;;;;10.98;8.25;;;;;;;14.20;31.07;101488.13;4982438;28;98900;-73
2021/05/20 08:37:54;;;;;;;8.77;7.88;;;;;;;14.25;30.99;101486.41;4981671;28;97361;-74
2021/05/20 08:40:22;;;;;;;10.95;9.73;;;;;;;14.33;30.83;101492.81;4981728;28;98148;-73
2021/05/20 08:42:50;;;;;;;11.68;10.32;;;;;;;14.41;31.07;101484.03;4981118;28;98728;-74
2021/05/20 08:45:19;;;;;;;50.50;36.13;;;;;;;14.52;31.02;101481.53;4982649;28;99702;-73
2021/05/20 08:47:49;;;;;;;10.60;9.50;;;;;;;14.64;30.94;101484.44;4981004;28;96915;-74
2021/05/20 08:50:20;;;;;;;11.82;9.45;;;;;;;14.71;30.57;101483.66;4981304;28;97887;-74
2021/05/20 08:52:48;;;;;;;12.60;9.77;;;;;;;14.76;30.15;101481.94;4981001;28;98157;-74
2021/05/20 08:55:18;;;;;;;10.70;9.60;;;;;;;14.80;30.16;101487.38;4982371;28;97762;-73
2021/05/20 08:57:46;;;;;;;8.50;7.65;;;;;;;14.87;29.96;101481.22;4982164;28;97494;-74
2021/05/20 09:00:16;;;;;;;9.13;7.07;;;;;;;14.92;29.92;101478.59;4983007;28;98053;-74
2021/05/20 09:02:44;;;;;;;8.60;7.40;;;;;;;14.97;29.88;101477.78;4981169;28;99803;-73
2021/05/20 09:05:16;;;;;;;8.40;7.50;;;;;;;14.98;29.51;101481.38;4982187;28;99478;-74
2021/05/20 09:07:49;;;;;;;8.53;7.60;;;;;;;14.96;29.78;101483.13;4980738;28;97941;-74
2021/05/20 09:10:20;;;;;;;9.95;8.02;;;;;;;14.97;29.62;101480.47;4981425;28;98770;-74
2021/05/20 09:12:50;;;;;;;9.43;8.45;;;;;;;15.00;29.75;101480.53;4981887;28;99695;-74
2021/05/20 09:15:27;;;;;;;12.50;9.60;;;;;;;15.04;29.67;101478.81;4980878;28;99119;-72
2021/05/20 09:18:10;;;;;;;12.20;9.65;;;;;;;15.06;29.50;101475.25;4981563;28;96692;-73
2021/05/20 09:20:39;;;;;;;7.65;6.93;;;;;;;15.12;29.41;101471.75;4981910;28;98130;-72
2021/05/20 09:23:12;;;;;;;8.10;6.20;;;;;;;15.23;29.05;101474.59;4982216;28;99145;-74
2021/05/20 09:25:42;;;;;;;7.32;6.13;;;;;;;15.32;29.33;101464.03;4982399;28;97739;-75
2021/05/20 09:28:11;;;;;;;7.65;6.38;;;;;;;15.41;28.85;101467.69;4981126;28;97708;-74
2021/05/20 09:30:40;;;;;;;6.25;5.65;;;;;;;15.51;28.51;101458.88;4979662;28;97282;-74
2021/05/20 09:33:09;;;;;;;6.00;5.40;;;;;;;15.56;28.48;101466.97;4981294;28;98124;-74
2021/05/20 09:35:38;;;;;;;5.95;5.35;;;;;;;15.62;28.51;101462.59;4980586;28;99633;-75
2021/05/20 09:38:11;;;;;;;7.35;5.68;;;;;;;15.65;27.91;101459.94;4981746;28;98423;-75
2021/05/20 09:40:40;;;;;;;6.15;5.35;;;;;;;15.68;28.11;101457.31;4979851;28;97350;-75
2021/05/20 09:43:16;;;;;;;6.75;5.40;;;;;;;15.69;28.40;101451.03;4980193;28;99030;-74
2021/05/20 09:45:44;;;;;;;9.77;7.53;;;;;;;15.72;27.74;101455.56;4982923;28;101183;-74
2021/05/20 09:48:12;;;;;;;8.68;7.80;;;;;;;15.77;28.19;101452.03;4985629;28;96834;-74
2021/05/20 09:50:42;;;;;;;6.13;5.53;;;;;;;15.81;28.07;101458.31;4983464;28;97811;-74
2021/05/20 09:53:13;;;;;;;14.90;9.20;;;;;;;15.80;27.74;101453.81;4985808;28;99453;-74
2021/05/20 09:55:46;;;;;;;6.57;5.50;;;;;;;15.82;28.10;101462.78;4983950;28;98019;-74
2021/05/20 09:58:14;;;;;;;7.10;6.10;;;;;;;15.83;28.10;101459.25;4991619;28;97646;-74
2021/05/20 10:00:43;;;;;;;17.20;12.43;;;;;;;15.84;28.02;101461.94;4985170;28;97567;-74
2021/05/20 10:03:12;;;;;;;7.07;5.57;;;;;;;15.90;27.88;101453.06;4979842;28;98008;-75
2021/05/20 10:05:41;;;;;;;6.75;5.72;;;;;;;15.94;27.68;101452.22;4985430;28;99302;-74
2021/05/20 10:08:11;;;;;;;7.00;5.68;;;;;;;15.99;27.75;101455.81;4984847;28;97185;-75
2021/05/20 10:10:41;;;;;;;6.60;6.00;;;;;;;16.05;27.47;101462.19;4984699;28;98332;-74
2021/05/20 10:13:10;;;;;;;6.47;5.60;;;;;;;16.12;27.68;101464.94;4983379;28;101941;-75
2021/05/20 10:15:40;;;;;;;4.30;3.90;;;;;;;16.17;27.31;101455.13;4984389;28;97741;-75
2021/05/20 10:18:09;;;;;;;4.23;3.83;;;;;;;16.20;26.90;101449.75;4985175;28;97821;-75
2021/05/20 10:20:38;;;;;;;5.15;4.05;;;;;;;16.23;26.95;101447.13;4984805;28;97789;-74
2021/05/20 10:23:07;;;;;;;4.32;3.92;;;;;;;16.30;26.92;101436.44;4985429;28;98115;-74
2021/05/20 10:25:38;;;;;;;5.07;3.77;;;;;;;16.36;27.04;101438.28;4977850;28;98104;-75
2021/05/20 10:28:09;;;;;;;3.60;3.03;;;;;;;16.37;26.30;101448.13;4979199;28;97827;-75
2021/05/20 10:30:38;;;;;;;2.60;2.40;;;;;;;16.24;24.90;101440.84;4980157;28;96896;-75
2021/05/20 10:33:06;;;;;;;3.43;3.13;;;;;;;16.20;24.75;101436.34;4980423;28;98402;-75
2021/05/20 10:35:42;;;;;;;3.75;3.20;;;;;;;16.18;25.11;101430.09;4976244;28;98197;-74
2021/05/20 10:38:14;;;;;;;3.50;3.22;;;;;;;16.23;25.84;101439.06;4983827;28;98670;-76
2021/05/20 10:40:43;;;;;;;8.83;7.07;;;;;;;16.28;25.90;101440.00;4982264;28;97988;-74
2021/05/20 10:43:14;;;;;;;5.50;4.68;;;;;;;16.31;26.10;101435.53;4985161;28;98072;-75
2021/05/20 10:45:43;;;;;;;4.78;4.18;;;;;;;16.36;26.21;101447.22;4986121;28;99931;-74
2021/05/20 10:48:21;;;;;;;4.57;4.13;;;;;;;16.41;25.88;101439.22;5001725;28;96978;-74
2021/05/20 10:50:57;;;;;;;4.20;3.88;;;;;;;16.50;26.01;101434.81;4985586;28;97281;-73
2021/05/20 10:53:50;;;;;;;4.22;3.80;;;;;;;16.51;25.60;101430.31;4985864;28;98910;-75
2021/05/20 10:56:53;;;;;;;3.90;3.42;;;;;;;16.58;25.11;101440.25;4986076;28;97727;-75
2021/05/20 10:59:42;;;;;;;4.35;3.95;;;;;;;16.64;25.35;101426.81;4983598;28;96913;-75
2021/05/20 11:02:17;;;;;;;5.05;3.88;;;;;;;16.70;24.63;101425.13;4986483;28;97342;-75
2021/05/20 11:04:45;;;;;;;4.25;3.88;;;;;;;16.65;24.59;101432.22;4985670;28;99016;-73
2021/05/20 11:07:13;;;;;;;5.35;4.65;;;;;;;16.64;24.62;101429.50;4986808;28;98854;-74
2021/05/20 11:09:46;;;;;;;4.40;4.00;;;;;;;16.66;24.97;101420.59;4986365;28;97977;-73
2021/05/20 11:12:15;;;;;;;4.80;4.33;;;;;;;16.63;24.65;101431.31;4986231;28;96919;-74
2021/05/20 11:14:45;;;;;;;4.97;4.47;;;;;;;16.67;24.79;101413.44;4985942;28;97824;-74
2021/05/20 11:17:32;;;;;;;5.03;4.53;;;;;;;16.70;24.96;101411.69;4984478;28;98314;-73
2021/05/20 11:20:27;;;;;;;4.88;4.47;;;;;;;16.80;24.89;101408.16;4983200;28;97544;-74
2021/05/20 11:23:19;;;;;;;5.43;4.95;;;;;;;16.91;24.73;101413.56;4982845;28;98070;-73
2021/05/20 11:26:18;;;;;;;4.97;4.47;;;;;;;17.05;24.46;101410.06;4981377;28;99852;-74
2021/05/20 11:28:51;;;;;;;4.93;4.40;;;;;;;17.16;24.20;101411.91;4981703;28;97764;-73